sensor_id;sensor_type;location;lat;lon;timestamp;temperature;humidity
24162;DHT22;12318;51.262;7.066;2023-05-16T00:01:12;11.10;99.90
24162;DHT22;12318;51.262;7.066;2023-05-16T00:03:41;11.10;99.90
24162;DHT22;12318;51.262;7.066;2023-05-16T00:06:07;11.00;99.90
24162;DHT22;12318;51.262;7.066;2023-05-16T00:08:41;11.00;99.90
24162;DHT22;12318;51.262;7.066;2023-05-16T00:11:21;10.90;99.90
24162;DHT22;12318;51.262;7.066;2023-05-16T00:13:50;10.90;99.90
24162;DHT22;12318;51.262;7.066;2023-05-16T00:16:18;10.90;99.90
24162;DHT22;12318;51.262;7.066;2023-05-16T00:18:48;10.90;99.90
24162;DHT22;12318;51.262;7.066;2023-05-16T00:21:14;10.90;99.90
24162;DHT22;12318;51.262;7.066;2023-05-16T00:23:40;10.80;99.90
24162;DHT22;12318;51.262;7.066;2023-05-16T00:26:40;10.70;99.90
24162;DHT22;12318;51.262;7.066;2023-05-16T00:29:18;10.70;99.90
24162;DHT22;12318;51.262;7.066;2023-05-16T00:31:44;10.70;99.90
24162;DHT22;12318;51.262;7.066;2023-05-16T00:34:10;10.70;99.90
24162;DHT22;12318;51.262;7.066;2023-05-16T00:36:39;10.80;99.90
24162;DHT22;12318;51.262;7.066;2023-05-16T00:39:05;10.60;99.90
24162;DHT22;12318;51.262;7.066;2023-05-16T00:41:30;10.50;99.90
24162;DHT22;12318;51.262;7.066;2023-05-16T00:43:59;10.60;99.90
24162;DHT22;12318;51.262;7.066;2023-05-16T00:46:32;10.50;99.90
24162;DHT22;12318;51.262;7.066;2023-05-16T00:49:10;10.40;99.90
24162;DHT22;12318;51.262;7.066;2023-05-16T00:51:39;10.40;99.90
24162;DHT22;12318;51.262;7.066;2023-05-16T00:54:18;10.40;99.90
24162;DHT22;12318;51.262;7.066;2023-05-16T00:57:11;10.40;99.90
24162;DHT22;12318;51.262;7.066;2023-05-16T00:59:40;10.40;99.90
24162;DHT22;12318;51.262;7.066;2023-05-16T01:02:12;10.30;99.90
24162;DHT22;12318;51.262;7.066;2023-05-16T01:04:54;10.40;99.90
24162;DHT22;12318;51.262;7.066;2023-05-16T01:07:23;10.30;99.90
24162;DHT22;12318;51.262;7.066;2023-05-16T01:09:49;10.30;99.90
24162;DHT22;12318;51.262;7.066;2023-05-16T01:12:40;10.30;99.90
24162;DHT22;12318;51.262;7.066;2023-05-16T01:15:29;10.10;99.90
24162;DHT22;12318;51.262;7.066;2023-05-16T01:18:23;10.30;99.90
24162;DHT22;12318;51.262;7.066;2023-05-16T01:21:19;10.00;99.90
24162;DHT22;12318;51.262;7.066;2023-05-16T01:24:03;10.00;99.90
24162;DHT22;12318;51.262;7.066;2023-05-16T01:26:45;9.90;99.90
24162;DHT22;12318;51.262;7.066;2023-05-16T01:29:12;9.90;99.90
24162;DHT22;12318;51.262;7.066;2023-05-16T01:31:38;9.80;99.90
24162;DHT22;12318;51.262;7.066;2023-05-16T01:34:10;9.80;99.90
24162;DHT22;12318;51.262;7.066;2023-05-16T01:36:56;9.80;99.90
24162;DHT22;12318;51.262;7.066;2023-05-16T01:39:56;9.80;99.90
24162;DHT22;12318;51.262;7.066;2023-05-16T01:42:29;9.70;99.90
24162;DHT22;12318;51.262;7.066;2023-05-16T01:45:22;9.60;99.90
24162;DHT22;12318;51.262;7.066;2023-05-16T01:48:15;9.60;99.90
24162;DHT22;12318;51.262;7.066;2023-05-16T01:54:46;9.60;99.90
24162;DHT22;12318;51.262;7.066;2023-05-16T02:01:12;9.40;99.90
24162;DHT22;12318;51.262;7.066;2023-05-16T02:03:38;9.40;99.90
24162;DHT22;12318;51.262;7.066;2023-05-16T02:06:04;9.30;99.90
24162;DHT22;12318;51.262;7.066;2023-05-16T02:08:30;9.10;99.90
24162;DHT22;12318;51.262;7.066;2023-05-16T02:11:01;9.10;99.90
24162;DHT22;12318;51.262;7.066;2023-05-16T02:13:30;9.10;99.90
24162;DHT22;12318;51.262;7.066;2023-05-16T02:15:59;9.10;99.90
24162;DHT22;12318;51.262;7.066;2023-05-16T02:18:28;9.00;99.90
24162;DHT22;12318;51.262;7.066;2023-05-16T02:20:57;9.10;99.90
24162;DHT22;12318;51.262;7.066;2023-05-16T02:23:25;9.10;99.90
24162;DHT22;12318;51.262;7.066;2023-05-16T02:25:54;9.00;99.90
24162;DHT22;12318;51.262;7.066;2023-05-16T02:28:20;8.80;99.90
24162;DHT22;12318;51.262;7.066;2023-05-16T02:30:58;8.90;99.90
24162;DHT22;12318;51.262;7.066;2023-05-16T02:37:25;8.90;99.90
24162;DHT22;12318;51.262;7.066;2023-05-16T02:47:27;8.70;99.90
24162;DHT22;12318;51.262;7.066;2023-05-16T02:49:55;8.70;99.90
24162;DHT22;12318;51.262;7.066;2023-05-16T02:52:28;8.70;99.90
24162;DHT22;12318;51.262;7.066;2023-05-16T02:54:59;8.80;99.90
24162;DHT22;12318;51.262;7.066;2023-05-16T02:57:57;8.80;99.90
24162;DHT22;12318;51.262;7.066;2023-05-16T03:00:25;8.70;99.90
24162;DHT22;12318;51.262;7.066;2023-05-16T03:02:53;8.80;99.90
24162;DHT22;12318;51.262;7.066;2023-05-16T03:05:22;8.70;99.90
24162;DHT22;12318;51.262;7.066;2023-05-16T03:07:54;8.70;99.90
24162;DHT22;12318;51.262;7.066;2023-05-16T03:10:27;8.80;99.90
24162;DHT22;12318;51.262;7.066;2023-05-16T03:13:05;8.80;99.90
24162;DHT22;12318;51.262;7.066;2023-05-16T03:15:38;8.80;99.90
24162;DHT22;12318;51.262;7.066;2023-05-16T03:18:06;8.70;99.90
24162;DHT22;12318;51.262;7.066;2023-05-16T03:20:52;8.70;99.90
24162;DHT22;12318;51.262;7.066;2023-05-16T03:23:28;8.80;99.90
24162;DHT22;12318;51.262;7.066;2023-05-16T03:25:59;8.60;99.90
24162;DHT22;12318;51.262;7.066;2023-05-16T03:28:30;8.70;99.90
24162;DHT22;12318;51.262;7.066;2023-05-16T03:30:59;8.70;99.90
24162;DHT22;12318;51.262;7.066;2023-05-16T03:33:28;8.60;99.90
24162;DHT22;12318;51.262;7.066;2023-05-16T03:35:56;8.70;99.90
24162;DHT22;12318;51.262;7.066;2023-05-16T03:38:27;8.70;99.90
24162;DHT22;12318;51.262;7.066;2023-05-16T03:40:55;8.70;99.90
24162;DHT22;12318;51.262;7.066;2023-05-16T03:43:28;8.50;99.90
24162;DHT22;12318;51.262;7.066;2023-05-16T03:45:57;8.40;99.90
24162;DHT22;12318;51.262;7.066;2023-05-16T03:48:34;8.30;99.90
24162;DHT22;12318;51.262;7.066;2023-05-16T03:51:03;8.40;99.90
24162;DHT22;12318;51.262;7.066;2023-05-16T03:53:31;8.50;99.90
24162;DHT22;12318;51.262;7.066;2023-05-16T03:55:57;8.40;99.90
24162;DHT22;12318;51.262;7.066;2023-05-16T03:58:25;8.30;99.90
24162;DHT22;12318;51.262;7.066;2023-05-16T04:00:51;8.30;99.90
24162;DHT22;12318;51.262;7.066;2023-05-16T04:03:18;8.20;99.90
24162;DHT22;12318;51.262;7.066;2023-05-16T04:05:44;8.30;99.90
24162;DHT22;12318;51.262;7.066;2023-05-16T04:08:10;8.20;99.90
24162;DHT22;12318;51.262;7.066;2023-05-16T04:10:43;8.30;99.90
24162;DHT22;12318;51.262;7.066;2023-05-16T04:13:25;8.20;99.90
24162;DHT22;12318;51.262;7.066;2023-05-16T04:16:02;8.10;99.90
24162;DHT22;12318;51.262;7.066;2023-05-16T04:18:28;8.00;99.90
24162;DHT22;12318;51.262;7.066;2023-05-16T04:20:54;8.00;99.90
24162;DHT22;12318;51.262;7.066;2023-05-16T04:23:23;7.90;99.90
24162;DHT22;12318;51.262;7.066;2023-05-16T04:25:51;7.90;99.90
24162;DHT22;12318;51.262;7.066;2023-05-16T04:28:17;7.90;99.90
24162;DHT22;12318;51.262;7.066;2023-05-16T04:30:44;7.70;99.90
24162;DHT22;12318;51.262;7.066;2023-05-16T04:33:13;7.70;99.90
24162;DHT22;12318;51.262;7.066;2023-05-16T04:35:39;7.70;99.90
24162;DHT22;12318;51.262;7.066;2023-05-16T04:38:05;7.60;99.90
24162;DHT22;12318;51.262;7.066;2023-05-16T04:40:40;7.70;99.90
24162;DHT22;12318;51.262;7.066;2023-05-16T04:43:09;7.70;99.90
24162;DHT22;12318;51.262;7.066;2023-05-16T04:45:35;7.70;99.90
24162;DHT22;12318;51.262;7.066;2023-05-16T04:48:01;7.90;99.90
24162;DHT22;12318;51.262;7.066;2023-05-16T04:50:27;7.90;99.90
24162;DHT22;12318;51.262;7.066;2023-05-16T04:52:54;8.00;99.90
24162;DHT22;12318;51.262;7.066;2023-05-16T04:55:20;7.90;99.90
24162;DHT22;12318;51.262;7.066;2023-05-16T04:57:45;7.90;99.90
24162;DHT22;12318;51.262;7.066;2023-05-16T05:00:12;7.70;99.90
24162;DHT22;12318;51.262;7.066;2023-05-16T05:02:44;7.70;99.90
24162;DHT22;12318;51.262;7.066;2023-05-16T05:05:12;7.70;99.90
24162;DHT22;12318;51.262;7.066;2023-05-16T05:07:38;7.70;99.90
24162;DHT22;12318;51.262;7.066;2023-05-16T05:10:05;7.70;99.90
24162;DHT22;12318;51.262;7.066;2023-05-16T05:12:32;7.60;99.90
24162;DHT22;12318;51.262;7.066;2023-05-16T05:14:58;7.70;99.90
24162;DHT22;12318;51.262;7.066;2023-05-16T05:17:24;7.60;99.90
24162;DHT22;12318;51.262;7.066;2023-05-16T05:19:52;7.70;99.90
24162;DHT22;12318;51.262;7.066;2023-05-16T05:22:18;7.70;99.90
24162;DHT22;12318;51.262;7.066;2023-05-16T05:24:43;7.70;99.90
24162;DHT22;12318;51.262;7.066;2023-05-16T05:27:09;7.80;99.90
24162;DHT22;12318;51.262;7.066;2023-05-16T05:29:41;8.00;99.90
24162;DHT22;12318;51.262;7.066;2023-05-16T05:32:09;7.90;99.90
24162;DHT22;12318;51.262;7.066;2023-05-16T05:34:35;8.10;99.90
24162;DHT22;12318;51.262;7.066;2023-05-16T05:37:00;7.90;99.90
24162;DHT22;12318;51.262;7.066;2023-05-16T05:39:26;8.10;99.90
24162;DHT22;12318;51.262;7.066;2023-05-16T05:41:54;8.20;99.90
24162;DHT22;12318;51.262;7.066;2023-05-16T05:44:22;8.10;99.90
24162;DHT22;12318;51.262;7.066;2023-05-16T05:46:51;8.30;99.90
24162;DHT22;12318;51.262;7.066;2023-05-16T05:49:16;8.10;99.90
24162;DHT22;12318;51.262;7.066;2023-05-16T05:51:42;8.40;99.90
24162;DHT22;12318;51.262;7.066;2023-05-16T05:54:08;8.40;99.90
24162;DHT22;12318;51.262;7.066;2023-05-16T05:56:34;8.20;99.90
24162;DHT22;12318;51.262;7.066;2023-05-16T05:59:03;8.00;99.90
24162;DHT22;12318;51.262;7.066;2023-05-16T06:01:32;8.10;99.90
24162;DHT22;12318;51.262;7.066;2023-05-16T06:04:00;8.10;99.90
24162;DHT22;12318;51.262;7.066;2023-05-16T06:06:26;8.10;99.90
24162;DHT22;12318;51.262;7.066;2023-05-16T06:09:00;8.20;99.90
24162;DHT22;12318;51.262;7.066;2023-05-16T06:11:28;8.40;99.90
24162;DHT22;12318;51.262;7.066;2023-05-16T06:13:54;8.40;99.90
24162;DHT22;12318;51.262;7.066;2023-05-16T06:16:24;8.30;99.90
24162;DHT22;12318;51.262;7.066;2023-05-16T06:18:52;8.10;99.90
24162;DHT22;12318;51.262;7.066;2023-05-16T06:21:18;8.20;99.90
24162;DHT22;12318;51.262;7.066;2023-05-16T06:23:44;8.30;99.90
24162;DHT22;12318;51.262;7.066;2023-05-16T06:26:12;8.40;99.90
24162;DHT22;12318;51.262;7.066;2023-05-16T06:28:38;8.30;99.90
24162;DHT22;12318;51.262;7.066;2023-05-16T06:31:04;8.50;99.90
24162;DHT22;12318;51.262;7.066;2023-05-16T06:33:32;8.60;99.90
24162;DHT22;12318;51.262;7.066;2023-05-16T06:35:58;8.80;99.90
24162;DHT22;12318;51.262;7.066;2023-05-16T06:38:32;8.80;99.90
24162;DHT22;12318;51.262;7.066;2023-05-16T06:40:58;9.00;99.90
24162;DHT22;12318;51.262;7.066;2023-05-16T06:43:46;8.80;99.90
24162;DHT22;12318;51.262;7.066;2023-05-16T06:46:12;8.50;99.90
24162;DHT22;12318;51.262;7.066;2023-05-16T06:48:40;8.50;99.90
24162;DHT22;12318;51.262;7.066;2023-05-16T06:51:06;8.70;99.90
24162;DHT22;12318;51.262;7.066;2023-05-16T06:53:34;8.80;99.90
24162;DHT22;12318;51.262;7.066;2023-05-16T06:56:02;8.70;99.90
24162;DHT22;12318;51.262;7.066;2023-05-16T06:58:30;8.50;99.90
24162;DHT22;12318;51.262;7.066;2023-05-16T07:00:58;8.60;99.90
24162;DHT22;12318;51.262;7.066;2023-05-16T07:03:28;8.50;99.90
24162;DHT22;12318;51.262;7.066;2023-05-16T07:05:53;8.40;99.90
24162;DHT22;12318;51.262;7.066;2023-05-16T07:08:24;8.40;99.90
24162;DHT22;12318;51.262;7.066;2023-05-16T07:10:50;8.60;99.90
24162;DHT22;12318;51.262;7.066;2023-05-16T07:13:16;8.80;99.90
24162;DHT22;12318;51.262;7.066;2023-05-16T07:15:42;9.00;99.90
24162;DHT22;12318;51.262;7.066;2023-05-16T07:18:07;9.30;99.90
24162;DHT22;12318;51.262;7.066;2023-05-16T07:20:33;9.40;99.90
24162;DHT22;12318;51.262;7.066;2023-05-16T07:22:59;9.70;99.90
24162;DHT22;12318;51.262;7.066;2023-05-16T07:25:25;9.80;99.90
24162;DHT22;12318;51.262;7.066;2023-05-16T07:27:54;9.40;99.90
24162;DHT22;12318;51.262;7.066;2023-05-16T07:30:20;9.20;99.90
24162;DHT22;12318;51.262;7.066;2023-05-16T07:32:46;8.90;99.90
24162;DHT22;12318;51.262;7.066;2023-05-16T07:35:14;9.00;99.90
24162;DHT22;12318;51.262;7.066;2023-05-16T07:37:41;8.80;99.90
24162;DHT22;12318;51.262;7.066;2023-05-16T07:40:11;8.70;99.90
24162;DHT22;12318;51.262;7.066;2023-05-16T07:42:37;8.90;99.90
24162;DHT22;12318;51.262;7.066;2023-05-16T07:45:04;9.10;99.90
24162;DHT22;12318;51.262;7.066;2023-05-16T07:47:32;9.10;99.90
24162;DHT22;12318;51.262;7.066;2023-05-16T07:50:01;9.30;99.90
24162;DHT22;12318;51.262;7.066;2023-05-16T07:52:27;9.30;99.90
24162;DHT22;12318;51.262;7.066;2023-05-16T07:54:53;9.20;99.90
24162;DHT22;12318;51.262;7.066;2023-05-16T07:57:28;9.10;99.90
24162;DHT22;12318;51.262;7.066;2023-05-16T07:59:54;9.00;99.90
24162;DHT22;12318;51.262;7.066;2023-05-16T08:02:22;9.00;99.90
24162;DHT22;12318;51.262;7.066;2023-05-16T08:04:50;9.00;99.90
24162;DHT22;12318;51.262;7.066;2023-05-16T08:07:16;9.40;99.90
24162;DHT22;12318;51.262;7.066;2023-05-16T08:09:42;9.60;96.80
24162;DHT22;12318;51.262;7.066;2023-05-16T08:12:08;9.90;96.70
24162;DHT22;12318;51.262;7.066;2023-05-16T08:14:37;10.00;95.40
24162;DHT22;12318;51.262;7.066;2023-05-16T08:17:04;10.60;97.40
24162;DHT22;12318;51.262;7.066;2023-05-16T08:19:33;10.50;96.30
24162;DHT22;12318;51.262;7.066;2023-05-16T08:21:59;10.30;90.80
24162;DHT22;12318;51.262;7.066;2023-05-16T08:24:25;10.40;90.60
24162;DHT22;12318;51.262;7.066;2023-05-16T08:26:56;10.50;86.00
24162;DHT22;12318;51.262;7.066;2023-05-16T08:29:22;10.60;87.70
24162;DHT22;12318;51.262;7.066;2023-05-16T08:31:56;10.60;81.50
24162;DHT22;12318;51.262;7.066;2023-05-16T08:34:22;10.80;86.10
24162;DHT22;12318;51.262;7.066;2023-05-16T08:36:47;11.10;88.30
24162;DHT22;12318;51.262;7.066;2023-05-16T08:39:14;11.40;92.10
24162;DHT22;12318;51.262;7.066;2023-05-16T08:41:54;10.80;86.00
24162;DHT22;12318;51.262;7.066;2023-05-16T08:44:21;10.60;84.70
24162;DHT22;12318;51.262;7.066;2023-05-16T08:46:51;10.20;78.00
24162;DHT22;12318;51.262;7.066;2023-05-16T08:49:18;10.30;80.00
24162;DHT22;12318;51.262;7.066;2023-05-16T08:51:56;10.30;79.10
24162;DHT22;12318;51.262;7.066;2023-05-16T08:54:23;10.30;81.00
24162;DHT22;12318;51.262;7.066;2023-05-16T08:56:52;10.20;82.20
24162;DHT22;12318;51.262;7.066;2023-05-16T08:59:19;10.30;85.60
24162;DHT22;12318;51.262;7.066;2023-05-16T09:01:45;10.50;81.40
24162;DHT22;12318;51.262;7.066;2023-05-16T09:04:11;10.50;78.20
24162;DHT22;12318;51.262;7.066;2023-05-16T09:06:37;10.80;78.80
24162;DHT22;12318;51.262;7.066;2023-05-16T09:09:04;11.20;80.40
24162;DHT22;12318;51.262;7.066;2023-05-16T09:11:32;11.40;75.80
24162;DHT22;12318;51.262;7.066;2023-05-16T09:13:59;11.30;68.40
24162;DHT22;12318;51.262;7.066;2023-05-16T09:16:25;11.50;69.80
24162;DHT22;12318;51.262;7.066;2023-05-16T09:18:55;11.50;68.30
24162;DHT22;12318;51.262;7.066;2023-05-16T09:21:22;11.90;68.10
24162;DHT22;12318;51.262;7.066;2023-05-16T09:23:49;11.80;71.20
24162;DHT22;12318;51.262;7.066;2023-05-16T09:26:17;11.60;74.90
24162;DHT22;12318;51.262;7.066;2023-05-16T09:28:43;11.20;77.20
24162;DHT22;12318;51.262;7.066;2023-05-16T09:31:23;11.00;79.90
24162;DHT22;12318;51.262;7.066;2023-05-16T09:33:57;10.70;75.10
24162;DHT22;12318;51.262;7.066;2023-05-16T09:36:24;10.90;80.70
24162;DHT22;12318;51.262;7.066;2023-05-16T09:38:53;11.30;82.30
24162;DHT22;12318;51.262;7.066;2023-05-16T09:41:21;11.20;79.10
24162;DHT22;12318;51.262;7.066;2023-05-16T09:43:49;10.90;75.60
24162;DHT22;12318;51.262;7.066;2023-05-16T09:46:15;10.80;73.90
24162;DHT22;12318;51.262;7.066;2023-05-16T09:48:47;10.80;75.20
24162;DHT22;12318;51.262;7.066;2023-05-16T09:51:13;11.10;73.90
24162;DHT22;12318;51.262;7.066;2023-05-16T09:53:39;11.00;75.20
24162;DHT22;12318;51.262;7.066;2023-05-16T09:56:09;10.90;75.90
24162;DHT22;12318;51.262;7.066;2023-05-16T09:58:37;11.00;68.90
24162;DHT22;12318;51.262;7.066;2023-05-16T10:01:04;11.40;69.80
24162;DHT22;12318;51.262;7.066;2023-05-16T10:03:33;11.50;65.20
24162;DHT22;12318;51.262;7.066;2023-05-16T10:06:03;11.60;65.30
24162;DHT22;12318;51.262;7.066;2023-05-16T10:08:31;12.10;68.00
24162;DHT22;12318;51.262;7.066;2023-05-16T10:11:04;12.20;62.30
24162;DHT22;12318;51.262;7.066;2023-05-16T10:13:32;12.50;59.60
24162;DHT22;12318;51.262;7.066;2023-05-16T10:16:05;12.50;60.40
24162;DHT22;12318;51.262;7.066;2023-05-16T10:18:35;12.10;56.80
24162;DHT22;12318;51.262;7.066;2023-05-16T10:21:08;12.40;68.50
24162;DHT22;12318;51.262;7.066;2023-05-16T10:23:37;11.90;60.10
24162;DHT22;12318;51.262;7.066;2023-05-16T10:26:08;12.30;67.00
24162;DHT22;12318;51.262;7.066;2023-05-16T10:28:39;12.60;64.50
24162;DHT22;12318;51.262;7.066;2023-05-16T10:31:09;12.70;62.60
24162;DHT22;12318;51.262;7.066;2023-05-16T10:33:35;12.70;64.30
24162;DHT22;12318;51.262;7.066;2023-05-16T10:36:03;12.40;64.90
24162;DHT22;12318;51.262;7.066;2023-05-16T10:38:30;12.20;67.30
24162;DHT22;12318;51.262;7.066;2023-05-16T10:40:57;11.90;66.50
24162;DHT22;12318;51.262;7.066;2023-05-16T10:43:27;11.90;64.10
24162;DHT22;12318;51.262;7.066;2023-05-16T10:45:58;12.10;64.70
24162;DHT22;12318;51.262;7.066;2023-05-16T10:48:35;12.60;66.60
24162;DHT22;12318;51.262;7.066;2023-05-16T10:51:04;12.80;66.00
24162;DHT22;12318;51.262;7.066;2023-05-16T10:54:03;12.60;63.90
24162;DHT22;12318;51.262;7.066;2023-05-16T10:56:32;12.40;66.60
24162;DHT22;12318;51.262;7.066;2023-05-16T10:58:59;12.40;66.10
24162;DHT22;12318;51.262;7.066;2023-05-16T11:01:28;12.10;64.00
24162;DHT22;12318;51.262;7.066;2023-05-16T11:06:34;12.10;67.10
24162;DHT22;12318;51.262;7.066;2023-05-16T11:09:21;12.10;69.00
24162;DHT22;12318;51.262;7.066;2023-05-16T11:17:05;12.20;64.90
24162;DHT22;12318;51.262;7.066;2023-05-16T11:22:09;12.10;68.80
24162;DHT22;12318;51.262;7.066;2023-05-16T11:24:36;12.20;74.20
24162;DHT22;12318;51.262;7.066;2023-05-16T11:27:04;12.20;76.20
24162;DHT22;12318;51.262;7.066;2023-05-16T11:29:31;12.00;70.60
24162;DHT22;12318;51.262;7.066;2023-05-16T11:32:03;12.00;71.00
24162;DHT22;12318;51.262;7.066;2023-05-16T11:34:30;11.80;71.20
24162;DHT22;12318;51.262;7.066;2023-05-16T11:36:57;11.60;69.50
24162;DHT22;12318;51.262;7.066;2023-05-16T11:39:24;11.60;71.10
24162;DHT22;12318;51.262;7.066;2023-05-16T11:41:51;11.80;71.90
24162;DHT22;12318;51.262;7.066;2023-05-16T11:44:17;12.00;73.80
24162;DHT22;12318;51.262;7.066;2023-05-16T11:46:43;12.30;75.40
24162;DHT22;12318;51.262;7.066;2023-05-16T11:49:09;12.50;68.60
24162;DHT22;12318;51.262;7.066;2023-05-16T11:51:41;12.60;68.40
24162;DHT22;12318;51.262;7.066;2023-05-16T11:54:10;12.60;65.70
24162;DHT22;12318;51.262;7.066;2023-05-16T11:56:38;12.50;70.40
24162;DHT22;12318;51.262;7.066;2023-05-16T11:59:05;12.90;70.60
24162;DHT22;12318;51.262;7.066;2023-05-16T12:01:36;13.10;65.90
24162;DHT22;12318;51.262;7.066;2023-05-16T12:04:12;13.10;65.20
24162;DHT22;12318;51.262;7.066;2023-05-16T12:06:39;12.90;66.40
24162;DHT22;12318;51.262;7.066;2023-05-16T12:09:11;12.80;71.30
24162;DHT22;12318;51.262;7.066;2023-05-16T12:11:39;12.40;68.20
24162;DHT22;12318;51.262;7.066;2023-05-16T12:14:10;12.20;68.90
24162;DHT22;12318;51.262;7.066;2023-05-16T12:16:37;12.00;68.00
24162;DHT22;12318;51.262;7.066;2023-05-16T12:19:06;11.80;69.10
24162;DHT22;12318;51.262;7.066;2023-05-16T12:21:33;11.80;74.20
24162;DHT22;12318;51.262;7.066;2023-05-16T12:23:59;11.70;74.80
24162;DHT22;12318;51.262;7.066;2023-05-16T12:26:29;11.80;74.20
24162;DHT22;12318;51.262;7.066;2023-05-16T12:29:01;11.70;72.60
24162;DHT22;12318;51.262;7.066;2023-05-16T12:31:29;11.90;76.20
24162;DHT22;12318;51.262;7.066;2023-05-16T12:33:56;11.90;75.30
24162;DHT22;12318;51.262;7.066;2023-05-16T12:36:23;12.10;76.30
24162;DHT22;12318;51.262;7.066;2023-05-16T12:38:49;12.10;71.70
24162;DHT22;12318;51.262;7.066;2023-05-16T12:41:17;12.30;66.30
24162;DHT22;12318;51.262;7.066;2023-05-16T12:43:43;12.80;71.20
24162;DHT22;12318;51.262;7.066;2023-05-16T12:46:10;13.10;65.90
24162;DHT22;12318;51.262;7.066;2023-05-16T12:48:46;13.30;60.20
24162;DHT22;12318;51.262;7.066;2023-05-16T12:51:35;13.50;58.30
24162;DHT22;12318;51.262;7.066;2023-05-16T12:54:11;13.70;57.10
24162;DHT22;12318;51.262;7.066;2023-05-16T12:56:40;13.80;56.90
24162;DHT22;12318;51.262;7.066;2023-05-16T12:59:06;13.60;53.70
24162;DHT22;12318;51.262;7.066;2023-05-16T13:01:33;13.40;56.90
24162;DHT22;12318;51.262;7.066;2023-05-16T13:03:59;13.80;58.20
24162;DHT22;12318;51.262;7.066;2023-05-16T13:06:29;14.10;56.00
24162;DHT22;12318;51.262;7.066;2023-05-16T13:09:02;14.40;58.20
24162;DHT22;12318;51.262;7.066;2023-05-16T13:11:32;14.60;56.40
24162;DHT22;12318;51.262;7.066;2023-05-16T13:14:02;14.10;53.40
24162;DHT22;12318;51.262;7.066;2023-05-16T13:16:30;14.00;52.90
24162;DHT22;12318;51.262;7.066;2023-05-16T13:18:57;13.60;55.90
24162;DHT22;12318;51.262;7.066;2023-05-16T13:21:23;13.40;54.00
24162;DHT22;12318;51.262;7.066;2023-05-16T13:23:49;13.50;54.70
24162;DHT22;12318;51.262;7.066;2023-05-16T13:26:15;13.60;55.30
24162;DHT22;12318;51.262;7.066;2023-05-16T13:28:43;13.80;57.00
24162;DHT22;12318;51.262;7.066;2023-05-16T13:31:12;13.90;56.70
24162;DHT22;12318;51.262;7.066;2023-05-16T13:33:38;14.20;58.50
24162;DHT22;12318;51.262;7.066;2023-05-16T13:36:04;14.30;54.20
24162;DHT22;12318;51.262;7.066;2023-05-16T13:38:30;14.00;47.30
24162;DHT22;12318;51.262;7.066;2023-05-16T13:40:56;13.90;48.60
24162;DHT22;12318;51.262;7.066;2023-05-16T13:43:22;13.90;48.90
24162;DHT22;12318;51.262;7.066;2023-05-16T13:45:48;14.30;54.10
24162;DHT22;12318;51.262;7.066;2023-05-16T13:48:14;14.40;49.60
24162;DHT22;12318;51.262;7.066;2023-05-16T13:50:40;14.20;50.00
24162;DHT22;12318;51.262;7.066;2023-05-16T13:53:06;13.90;44.70
24162;DHT22;12318;51.262;7.066;2023-05-16T13:55:32;14.20;45.00
24162;DHT22;12318;51.262;7.066;2023-05-16T13:57:59;14.20;48.00
24162;DHT22;12318;51.262;7.066;2023-05-16T14:00:24;14.20;47.80
24162;DHT22;12318;51.262;7.066;2023-05-16T14:02:54;14.30;46.80
24162;DHT22;12318;51.262;7.066;2023-05-16T14:05:20;14.40;48.10
24162;DHT22;12318;51.262;7.066;2023-05-16T14:07:51;14.70;51.00
24162;DHT22;12318;51.262;7.066;2023-05-16T14:10:19;14.60;50.20
24162;DHT22;12318;51.262;7.066;2023-05-16T14:12:45;14.70;52.60
24162;DHT22;12318;51.262;7.066;2023-05-16T14:15:13;14.20;42.40
24162;DHT22;12318;51.262;7.066;2023-05-16T14:17:44;14.00;45.20
24162;DHT22;12318;51.262;7.066;2023-05-16T14:20:13;13.60;45.10
24162;DHT22;12318;51.262;7.066;2023-05-16T14:22:39;13.50;47.30
24162;DHT22;12318;51.262;7.066;2023-05-16T14:25:06;13.30;51.60
24162;DHT22;12318;51.262;7.066;2023-05-16T14:27:32;13.40;51.00
24162;DHT22;12318;51.262;7.066;2023-05-16T14:29:58;13.20;52.30
24162;DHT22;12318;51.262;7.066;2023-05-16T14:32:24;13.20;53.50
24162;DHT22;12318;51.262;7.066;2023-05-16T14:34:50;13.50;51.20
24162;DHT22;12318;51.262;7.066;2023-05-16T14:37:17;13.60;50.80
24162;DHT22;12318;51.262;7.066;2023-05-16T14:39:46;13.80;50.90
24162;DHT22;12318;51.262;7.066;2023-05-16T14:42:14;13.70;51.90
24162;DHT22;12318;51.262;7.066;2023-05-16T14:44:39;13.80;50.50
24162;DHT22;12318;51.262;7.066;2023-05-16T14:47:13;14.00;50.50
24162;DHT22;12318;51.262;7.066;2023-05-16T14:49:39;13.70;48.30
24162;DHT22;12318;51.262;7.066;2023-05-16T14:52:05;13.80;51.90
24162;DHT22;12318;51.262;7.066;2023-05-16T14:54:31;13.80;52.70
24162;DHT22;12318;51.262;7.066;2023-05-16T14:56:57;13.50;50.00
24162;DHT22;12318;51.262;7.066;2023-05-16T14:59:24;13.60;56.00
24162;DHT22;12318;51.262;7.066;2023-05-16T15:01:50;13.50;51.40
24162;DHT22;12318;51.262;7.066;2023-05-16T15:04:16;13.50;53.60
24162;DHT22;12318;51.262;7.066;2023-05-16T15:06:42;13.20;52.60
24162;DHT22;12318;51.262;7.066;2023-05-16T15:09:07;13.00;52.10
24162;DHT22;12318;51.262;7.066;2023-05-16T15:11:33;13.00;54.40
24162;DHT22;12318;51.262;7.066;2023-05-16T15:13:59;13.00;56.90
24162;DHT22;12318;51.262;7.066;2023-05-16T15:16:26;13.00;55.80
24162;DHT22;12318;51.262;7.066;2023-05-16T15:18:51;13.00;52.70
24162;DHT22;12318;51.262;7.066;2023-05-16T15:21:17;12.90;51.40
24162;DHT22;12318;51.262;7.066;2023-05-16T15:23:44;13.00;53.50
24162;DHT22;12318;51.262;7.066;2023-05-16T15:26:09;12.90;52.10
24162;DHT22;12318;51.262;7.066;2023-05-16T15:28:35;12.90;53.90
24162;DHT22;12318;51.262;7.066;2023-05-16T15:31:02;12.80;54.40
24162;DHT22;12318;51.262;7.066;2023-05-16T15:33:31;12.60;55.20
24162;DHT22;12318;51.262;7.066;2023-05-16T15:35:57;12.50;55.90
24162;DHT22;12318;51.262;7.066;2023-05-16T15:38:23;12.30;54.50
24162;DHT22;12318;51.262;7.066;2023-05-16T15:40:48;12.20;56.20
24162;DHT22;12318;51.262;7.066;2023-05-16T15:43:14;12.30;56.30
24162;DHT22;12318;51.262;7.066;2023-05-16T15:45:42;12.40;56.50
24162;DHT22;12318;51.262;7.066;2023-05-16T15:48:08;12.60;57.70
24162;DHT22;12318;51.262;7.066;2023-05-16T15:50:34;12.60;55.50
24162;DHT22;12318;51.262;7.066;2023-05-16T15:53:00;12.50;55.80
24162;DHT22;12318;51.262;7.066;2023-05-16T15:55:27;12.60;56.70
24162;DHT22;12318;51.262;7.066;2023-05-16T15:57:56;12.60;56.40
24162;DHT22;12318;51.262;7.066;2023-05-16T16:00:26;12.30;54.50
24162;DHT22;12318;51.262;7.066;2023-05-16T16:02:52;12.30;55.50
24162;DHT22;12318;51.262;7.066;2023-05-16T16:05:21;12.30;57.20
24162;DHT22;12318;51.262;7.066;2023-05-16T16:07:46;12.30;56.50
24162;DHT22;12318;51.262;7.066;2023-05-16T16:10:15;12.20;56.10
24162;DHT22;12318;51.262;7.066;2023-05-16T16:12:56;12.20;58.90
24162;DHT22;12318;51.262;7.066;2023-05-16T16:15:24;12.10;59.40
24162;DHT22;12318;51.262;7.066;2023-05-16T16:17:50;12.10;59.60
24162;DHT22;12318;51.262;7.066;2023-05-16T16:20:15;12.00;57.70